createdAt,value
2018-07-12T00:01:50.921Z,53.75
2018-07-12T00:04:18.214Z,53.55
2018-07-12T00:06:46.338Z,53.48
2018-07-12T00:09:14.540Z,53.53
2018-07-12T00:11:42.018Z,53.76
2018-07-12T00:14:10.318Z,54.14
2018-07-12T00:16:38.378Z,54.28
2018-07-12T00:19:06.051Z,54.46
2018-07-12T00:21:34.333Z,54.50
2018-07-12T00:24:01.644Z,54.37
2018-07-12T00:26:29.858Z,54.71
2018-07-12T00:28:59.430Z,54.85
2018-07-12T00:31:27.415Z,54.65
2018-07-12T00:33:54.854Z,55.02
2018-07-12T00:36:22.176Z,54.54
2018-07-12T00:38:49.492Z,54.59
2018-07-12T00:41:16.891Z,55.02
2018-07-12T00:43:44.411Z,55.11
2018-07-12T00:46:11.821Z,55.04
2018-07-12T00:48:39.139Z,55.11
2018-07-12T00:51:06.616Z,55.14
2018-07-12T00:53:33.997Z,55.34
2018-07-12T00:56:01.351Z,54.69
2018-07-12T00:58:29.319Z,54.41
2018-07-12T01:00:57.478Z,54.83
2018-07-12T01:03:25.038Z,55.87
2018-07-12T01:05:52.449Z,55.40
2018-07-12T01:08:19.905Z,55.78
2018-07-12T01:10:48.012Z,55.80
2018-07-12T01:13:15.412Z,55.82
2018-07-12T01:15:43.337Z,55.53
2018-07-12T01:18:11.475Z,55.06
2018-07-12T01:20:38.800Z,55.04
2018-07-12T01:23:06.770Z,55.20
2018-07-12T01:25:34.094Z,54.50
2018-07-12T01:28:02.203Z,55.02
2018-07-12T01:30:29.539Z,54.98
2018-07-12T01:32:57.039Z,54.61
2018-07-12T01:35:24.368Z,54.37
2018-07-12T01:37:52.329Z,54.44
2018-07-12T01:40:20.699Z,54.62
2018-07-12T01:42:48.635Z,54.46
2018-07-12T01:45:16.029Z,54.40
2018-07-12T01:47:44.115Z,54.20
2018-07-12T01:50:12.256Z,54.05
2018-07-12T01:52:40.877Z,54.06
2018-07-12T01:55:08.910Z,54.09
2018-07-12T01:57:36.264Z,53.83
2018-07-12T02:00:03.704Z,53.84
2018-07-12T02:02:31.220Z,53.81
2018-07-12T02:04:58.656Z,53.46
2018-07-12T02:07:26.440Z,54.00
2018-07-12T02:09:54.673Z,53.90
2018-07-12T02:12:22.378Z,53.83
2018-07-12T02:14:49.963Z,54.09
2018-07-12T02:17:18.684Z,54.41
2018-07-12T02:19:46.004Z,54.09
2018-07-12T02:22:13.977Z,54.10
2018-07-12T02:24:42.074Z,53.99
2018-07-12T02:27:09.441Z,53.95
2018-07-12T02:29:36.808Z,53.92
2018-07-12T02:32:04.388Z,53.96
2018-07-12T02:34:32.427Z,53.69
2018-07-12T02:36:59.759Z,53.67
2018-07-12T02:39:27.074Z,53.60
2018-07-12T02:41:54.538Z,53.65
2018-07-12T02:44:22.109Z,53.92
2018-07-12T02:46:49.490Z,54.17
2018-07-12T02:49:17.392Z,54.16
2018-07-12T02:51:44.805Z,54.24
2018-07-12T02:54:13.100Z,54.37
2018-07-12T02:56:40.419Z,54.19
2018-07-12T02:59:08.653Z,54.15
2018-07-12T03:01:36.614Z,55.26
2018-07-12T03:04:04.720Z,54.86
2018-07-12T03:06:32.025Z,55.15
2018-07-12T03:08:59.711Z,54.81
2018-07-12T03:11:27.691Z,55.19
2018-07-12T03:13:55.628Z,54.83
2018-07-12T03:16:23.702Z,55.48
2018-07-12T03:18:52.502Z,54.96
2018-07-12T03:21:20.169Z,54.87
2018-07-12T03:23:47.513Z,54.67
2018-07-12T03:26:15.156Z,54.74
2018-07-12T03:28:42.652Z,55.13
2018-07-12T03:31:09.963Z,55.00
2018-07-12T03:33:37.375Z,54.65
2018-07-12T03:36:04.678Z,54.72
2018-07-12T03:38:32.039Z,54.57
2018-07-12T03:40:59.383Z,54.81
2018-07-12T03:43:27.520Z,54.76
2018-07-12T03:45:54.871Z,55.06
2018-07-12T03:48:23.031Z,55.26
2018-07-12T03:50:50.429Z,54.35
2018-07-12T03:53:18.410Z,55.03
2018-07-12T03:55:46.711Z,54.96
2018-07-12T03:58:14.405Z,54.50
2018-07-12T04:00:41.742Z,55.10
2018-07-12T04:03:09.075Z,54.57
2018-07-12T04:05:36.534Z,54.63
2018-07-12T04:08:04.100Z,55.09
2018-07-12T04:10:31.671Z,55.64
2018-07-12T04:12:59.012Z,55.64
2018-07-12T04:15:26.329Z,55.99
2018-07-12T04:17:54.366Z,55.53
2018-07-12T04:20:21.996Z,54.89
2018-07-12T04:22:49.321Z,54.97
2018-07-12T04:25:17.234Z,55.03
2018-07-12T04:27:45.476Z,54.91
2018-07-12T04:30:13.545Z,54.60
2018-07-12T04:32:41.920Z,55.48
2018-07-12T04:35:09.451Z,55.26
2018-07-12T04:37:36.809Z,55.33
2018-07-12T04:40:04.406Z,56.08
2018-07-12T04:42:31.816Z,56.07
2018-07-12T04:44:59.120Z,55.56
2018-07-12T04:47:26.429Z,55.23
2018-07-12T04:49:54.548Z,54.73
2018-07-12T04:52:27.403Z,54.92
2018-07-12T04:54:55.382Z,54.69
2018-07-12T04:57:24.690Z,54.62
2018-07-12T04:59:52.053Z,55.12
2018-07-12T05:02:19.490Z,56.34
2018-07-12T05:04:46.805Z,55.72
2018-07-12T05:07:14.894Z,55.35
2018-07-12T05:09:42.331Z,55.77
2018-07-12T05:12:09.695Z,55.49
2018-07-12T05:14:37.059Z,54.89
2018-07-12T05:17:05.279Z,54.94
2018-07-12T05:19:34.257Z,55.15
2018-07-12T05:22:02.276Z,55.06
2018-07-12T05:24:29.665Z,54.90
2018-07-12T05:26:57.014Z,54.65
2018-07-12T05:29:25.209Z,54.91
2018-07-12T05:31:53.306Z,54.59
2018-07-12T05:34:20.631Z,55.01
2018-07-12T05:36:58.112Z,55.33
2018-07-12T05:39:27.685Z,55.09
2018-07-12T05:41:56.494Z,55.58
2018-07-12T05:44:26.700Z,55.21
2018-07-12T05:46:56.628Z,55.91
2018-07-12T05:49:26.196Z,55.64
2018-07-12T05:51:56.104Z,55.22
2018-07-12T05:54:26.733Z,54.94
2018-07-12T05:56:56.347Z,54.72
2018-07-12T05:59:27.684Z,54.62
2018-07-12T06:02:07.438Z,54.00
2018-07-12T06:04:36.872Z,53.47
2018-07-12T06:07:06.485Z,53.98
2018-07-12T06:09:36.078Z,54.76
2018-07-12T06:12:05.336Z,54.57
2018-07-12T06:14:34.834Z,54.81
2018-07-12T06:17:03.457Z,56.34
2018-07-12T06:19:33.297Z,55.66
2018-07-12T06:22:01.998Z,56.45
2018-07-12T06:24:33.239Z,55.70
2018-07-12T06:27:02.559Z,55.05
2018-07-12T06:29:32.249Z,55.19
2018-07-12T06:32:01.584Z,55.13
2018-07-12T06:34:30.861Z,54.87
2018-07-12T06:37:01.600Z,55.51
2018-07-12T06:39:31.233Z,54.88
2018-07-12T06:42:02.308Z,54.72
2018-07-12T06:44:31.653Z,55.11
2018-07-12T06:47:00.990Z,54.96
2018-07-12T06:49:30.379Z,55.02
2018-07-12T06:51:59.115Z,54.90
2018-07-12T06:54:27.742Z,57.00
2018-07-12T06:56:57.524Z,56.81
2018-07-12T06:59:26.200Z,56.87
2018-07-12T07:01:55.187Z,55.67
2018-07-12T07:04:23.800Z,56.54
2018-07-12T07:06:53.065Z,56.37
2018-07-12T07:09:22.303Z,56.68
2018-07-12T07:11:52.945Z,56.08
2018-07-12T07:14:23.494Z,56.91
2018-07-12T07:16:52.278Z,57.16
2018-07-12T07:19:21.677Z,57.03
2018-07-12T07:21:52.533Z,57.79
2018-07-12T07:24:22.212Z,57.69
2018-07-12T07:26:51.852Z,56.49
2018-07-12T07:29:20.658Z,55.16
2018-07-12T07:31:50.352Z,54.61
2018-07-12T07:34:19.844Z,54.49
2018-07-12T07:36:48.747Z,54.33
2018-07-12T07:39:18.739Z,55.01
2018-07-12T07:41:48.085Z,55.92
2018-07-12T07:44:16.898Z,55.63
2018-07-12T07:46:47.094Z,55.27
2018-07-12T07:49:16.224Z,54.86
2018-07-12T07:51:44.884Z,54.76
2018-07-12T07:54:14.924Z,56.57
2018-07-12T07:56:44.720Z,57.47
2018-07-12T07:59:15.185Z,58.80
2018-07-12T08:01:43.804Z,58.62
2018-07-12T08:04:14.024Z,58.61
2018-07-12T08:06:42.769Z,58.02
2018-07-12T08:09:11.504Z,58.17
2018-07-12T08:11:41.655Z,56.93
2018-07-12T08:14:10.437Z,57.64
2018-07-12T08:16:39.834Z,58.20
2018-07-12T08:19:08.480Z,58.37
2018-07-12T08:21:37.014Z,58.02
2018-07-12T08:24:07.511Z,58.13
2018-07-12T08:26:36.812Z,58.28
2018-07-12T08:29:06.377Z,58.14
2018-07-12T08:31:36.035Z,57.53
2018-07-12T08:34:05.548Z,57.84
2018-07-12T08:36:34.161Z,58.29
2018-07-12T08:39:04.250Z,57.68
2018-07-12T08:41:32.950Z,58.05
2018-07-12T08:44:02.766Z,57.58
2018-07-12T08:46:31.475Z,57.82
2018-07-12T08:49:00.295Z,58.12
2018-07-12T08:51:29.836Z,58.36
2018-07-12T08:53:59.506Z,57.32
2018-07-12T08:56:28.963Z,56.20
2018-07-12T08:58:57.737Z,55.43
2018-07-12T09:01:27.151Z,55.72
2018-07-12T09:03:57.085Z,54.75
2018-07-12T09:06:25.988Z,55.45
2018-07-12T09:08:55.421Z,55.70
2018-07-12T09:11:24.718Z,55.81
2018-07-12T09:13:55.448Z,54.58
2018-07-12T09:16:24.169Z,53.12
2018-07-12T09:18:52.819Z,52.68
2018-07-12T09:21:22.141Z,51.53
2018-07-12T09:23:50.905Z,51.80
2018-07-12T09:26:19.492Z,51.81
2018-07-12T09:28:48.541Z,52.49
2018-07-12T09:31:17.334Z,52.59
2018-07-12T09:33:46.639Z,52.21
2018-07-12T09:36:15.282Z,51.25
2018-07-12T09:38:50.285Z,51.11
2018-07-12T09:41:19.681Z,51.36
2018-07-12T09:43:48.794Z,50.14
2018-07-12T09:46:17.690Z,50.95
2018-07-12T09:48:47.763Z,50.11
2018-07-12T09:51:16.922Z,49.64
2018-07-12T09:53:46.605Z,50.15
2018-07-12T09:56:15.437Z,50.58
2018-07-12T09:58:44.267Z,50.67
2018-07-12T10:01:18.453Z,50.94
2018-07-12T10:03:53.918Z,50.75
2018-07-12T10:06:30.953Z,50.82
2018-07-12T10:09:04.347Z,50.40
2018-07-12T10:11:39.115Z,49.33
2018-07-12T10:14:13.161Z,49.80
2018-07-12T10:16:49.994Z,49.27
2018-07-12T10:19:19.416Z,47.76
2018-07-12T10:21:49.700Z,48.14
2018-07-12T10:24:19.056Z,47.54
2018-07-12T10:26:47.720Z,47.13
2018-07-12T10:29:17.012Z,46.25
2018-07-12T10:31:45.678Z,46.68
2018-07-12T10:34:15.984Z,46.44
2018-07-12T10:36:45.138Z,45.81
2018-07-12T10:39:13.863Z,45.00
2018-07-12T10:41:42.455Z,45.63
2018-07-12T10:44:12.229Z,44.18
2018-07-12T10:46:41.083Z,43.41
2018-07-12T10:49:10.458Z,42.37
2018-07-12T10:51:39.265Z,43.83
2018-07-12T10:54:07.926Z,43.39
2018-07-12T10:56:36.873Z,43.12
2018-07-12T10:59:06.034Z,41.83
2018-07-12T11:01:36.110Z,41.92
2018-07-12T11:04:05.084Z,42.08
2018-07-12T11:06:34.469Z,41.94
2018-07-12T11:09:03.266Z,42.40
2018-07-12T11:11:32.132Z,43.63
2018-07-12T11:14:02.562Z,43.92
2018-07-12T11:16:32.541Z,43.86
2018-07-12T11:19:01.200Z,42.88
2018-07-12T11:21:29.931Z,42.41
2018-07-12T11:23:58.510Z,42.78
2018-07-12T11:26:27.496Z,41.07
2018-07-12T11:28:56.229Z,42.25
2018-07-12T11:31:26.105Z,40.63
2018-07-12T11:33:55.470Z,42.23
2018-07-12T11:36:24.234Z,41.08
2018-07-12T11:38:53.573Z,41.41
2018-07-12T11:41:22.184Z,40.90
2018-07-12T11:43:50.871Z,40.89
2018-07-12T11:46:21.378Z,40.85
2018-07-12T11:48:51.452Z,41.13
2018-07-12T11:51:20.700Z,39.83
2018-07-12T11:53:49.365Z,39.71
2018-07-12T11:56:18.148Z,39.87
2018-07-12T11:58:48.008Z,39.96
2018-07-12T12:01:17.931Z,40.47
2018-07-12T12:03:47.534Z,40.81
2018-07-12T12:06:16.227Z,40.67
2018-07-12T12:08:44.919Z,41.16
2018-07-12T12:11:13.562Z,41.39
2018-07-12T12:13:42.739Z,41.97
2018-07-12T12:16:11.578Z,41.37
2018-07-12T12:18:40.255Z,40.82
2018-07-12T12:21:09.020Z,40.68
2018-07-12T12:23:38.269Z,40.26
2018-07-12T12:26:07.594Z,40.25
2018-07-12T12:28:36.220Z,40.14
2018-07-12T12:31:04.933Z,39.62
2018-07-12T12:33:33.582Z,40.23
2018-07-12T12:36:02.270Z,39.61
2018-07-12T12:38:31.284Z,40.16
2018-07-12T12:41:00.822Z,40.06
2018-07-12T12:43:29.413Z,40.62
2018-07-12T12:45:58.058Z,40.55
2018-07-12T12:48:26.643Z,40.83
2018-07-12T12:50:56.160Z,40.40
2018-07-12T12:53:24.871Z,40.27
2018-07-12T12:55:55.026Z,39.01
2018-07-12T12:58:23.672Z,36.38
2018-07-12T13:00:52.242Z,35.62
2018-07-12T13:03:21.104Z,35.44
2018-07-12T13:05:49.713Z,37.03
2018-07-12T13:08:18.359Z,35.72
2018-07-12T13:10:47.026Z,32.93
2018-07-12T13:13:15.707Z,32.88
2018-07-12T13:15:44.363Z,31.63
2018-07-12T13:18:13.155Z,33.62
2018-07-12T13:20:41.932Z,35.77
2018-07-12T13:23:10.807Z,33.84
2018-07-12T13:25:40.281Z,31.24
2018-07-12T13:28:09.128Z,32.40
2018-07-12T13:30:37.709Z,31.16
2018-07-12T13:33:06.414Z,30.57
2018-07-12T13:35:35.029Z,32.11
2018-07-12T13:38:03.649Z,32.46
2018-07-12T13:40:32.258Z,32.96
2018-07-12T13:43:01.244Z,35.98
2018-07-12T13:45:30.809Z,35.73
2018-07-12T13:47:59.410Z,35.48
2018-07-12T13:50:28.500Z,34.39
2018-07-12T13:52:57.814Z,34.08
2018-07-12T13:55:26.431Z,32.59
2018-07-12T13:57:55.530Z,33.32
2018-07-12T14:00:24.313Z,32.45
2018-07-12T14:02:52.905Z,31.57
2018-07-12T14:05:21.540Z,32.32
2018-07-12T14:07:50.147Z,31.20
2018-07-12T14:10:19.100Z,31.06
2018-07-12T14:12:47.690Z,31.94
2018-07-12T14:15:16.464Z,32.08
2018-07-12T14:17:45.094Z,30.57
2018-07-12T14:20:13.679Z,29.97
2018-07-12T14:22:42.449Z,29.52
2018-07-12T14:25:11.057Z,28.89
2018-07-12T14:27:39.834Z,28.60
2018-07-12T14:30:08.504Z,27.74
2018-07-12T14:32:37.215Z,27.51
2018-07-12T14:35:05.905Z,28.63
2018-07-12T14:37:34.579Z,27.79
2018-07-12T14:40:04.044Z,28.76
2018-07-12T14:42:33.584Z,29.93
2018-07-12T14:45:02.259Z,31.60
2018-07-12T14:47:30.960Z,31.99
2018-07-12T14:49:59.584Z,33.00
2018-07-12T14:52:28.225Z,32.53
2018-07-12T14:54:56.938Z,34.74
2018-07-12T14:57:25.609Z,35.50
2018-07-12T14:59:54.234Z,34.73
2018-07-12T15:02:22.934Z,34.40
2018-07-12T15:04:51.564Z,34.62
2018-07-12T15:07:20.240Z,35.25
2018-07-12T15:09:49.194Z,35.33
2018-07-12T15:12:17.892Z,35.56
2018-07-12T15:14:47.273Z,35.79
2018-07-12T15:17:15.979Z,35.07
2018-07-12T15:19:45.568Z,36.04
2018-07-12T15:22:14.230Z,35.63
2018-07-12T15:24:42.878Z,35.54
2018-07-12T15:27:11.844Z,34.76
2018-07-12T15:29:40.556Z,35.07
2018-07-12T15:32:09.256Z,34.25
2018-07-12T15:34:38.050Z,34.46
2018-07-12T15:37:06.954Z,33.96
2018-07-12T15:39:36.823Z,34.27
2018-07-12T15:42:06.657Z,34.14
2018-07-12T15:44:35.386Z,34.54
2018-07-12T15:47:04.331Z,34.51
2018-07-12T15:49:33.347Z,33.64
2018-07-12T15:52:02.261Z,34.18
2018-07-12T15:54:31.041Z,34.10
2018-07-12T15:56:59.831Z,35.59
2018-07-12T15:59:29.027Z,35.18
2018-07-12T16:01:59.046Z,34.66
2018-07-12T16:04:28.494Z,34.83
2018-07-12T16:06:57.912Z,34.56
2018-07-12T16:09:27.305Z,35.25
2018-07-12T16:11:55.916Z,35.87
2018-07-12T16:14:25.152Z,35.79
2018-07-12T16:16:54.050Z,35.91
2018-07-12T16:19:22.975Z,36.07
2018-07-12T16:21:52.498Z,36.03
2018-07-12T16:24:21.541Z,36.22
2018-07-12T16:26:50.775Z,35.46
2018-07-12T16:29:19.460Z,35.00
2018-07-12T16:31:48.479Z,35.19
2018-07-12T16:34:17.184Z,34.21
2018-07-12T16:36:46.371Z,34.83
2018-07-12T16:39:16.088Z,34.45
2018-07-12T16:41:45.004Z,34.66
2018-07-12T16:44:14.647Z,35.24
2018-07-12T16:46:44.163Z,35.79
2018-07-12T16:49:12.810Z,35.03
2018-07-12T16:51:43.133Z,35.22
2018-07-12T16:54:11.869Z,34.38
2018-07-12T16:56:40.581Z,34.14
2018-07-12T16:59:09.285Z,34.53
2018-07-12T17:01:39.013Z,33.47
2018-07-12T17:04:07.773Z,35.10
2018-07-12T17:06:37.388Z,34.17
2018-07-12T17:09:07.801Z,34.87
2018-07-12T17:11:38.628Z,35.59
2018-07-12T17:14:07.306Z,35.08
2018-07-12T17:16:35.913Z,34.47
2018-07-12T17:19:04.575Z,34.29
2018-07-12T17:21:33.213Z,35.46
2018-07-12T17:24:01.914Z,35.68
2018-07-12T17:26:31.143Z,35.50
2018-07-12T17:29:00.113Z,34.75
2018-07-12T17:31:28.829Z,35.50
2018-07-12T17:33:57.559Z,35.67
2018-07-12T17:36:26.332Z,35.92
2018-07-12T17:38:55.069Z,35.82
2018-07-12T17:41:23.724Z,35.82
2018-07-12T17:43:52.451Z,35.90
2018-07-12T17:46:21.557Z,36.25
2018-07-12T17:48:50.900Z,35.54
2018-07-12T17:51:19.593Z,35.99
2018-07-12T17:53:49.235Z,35.93
2018-07-12T17:56:17.950Z,35.83
2018-07-12T17:58:46.524Z,35.77
2018-07-12T18:01:15.942Z,35.52
2018-07-12T18:03:44.615Z,35.21
2018-07-12T18:06:13.346Z,36.05
2018-07-12T18:08:41.976Z,36.33
2018-07-12T18:11:10.988Z,36.22
2018-07-12T18:13:40.725Z,35.73
2018-07-12T18:16:10.953Z,35.50
2018-07-12T18:18:40.431Z,36.29
2018-07-12T18:21:09.166Z,35.99
2018-07-12T18:23:38.174Z,35.80
2018-07-12T18:26:06.864Z,37.27
2018-07-12T18:28:35.501Z,37.92
2018-07-12T18:31:04.566Z,36.90
2018-07-12T18:33:33.227Z,36.77
2018-07-12T18:36:02.765Z,37.25
2018-07-12T18:38:31.562Z,37.16
2018-07-12T18:41:00.215Z,37.26
2018-07-12T18:43:29.565Z,37.02
2018-07-12T18:45:58.495Z,37.43
2018-07-12T18:48:27.197Z,37.62
2018-07-12T18:50:56.230Z,37.06
2018-07-12T18:53:24.890Z,37.59
2018-07-12T18:55:53.629Z,37.65
2018-07-12T18:58:22.312Z,37.65
2018-07-12T19:00:51.072Z,38.14
2018-07-12T19:03:19.779Z,38.38
2018-07-12T19:05:48.521Z,38.81
2018-07-12T19:08:17.219Z,39.21
2018-07-12T19:10:45.909Z,39.15
2018-07-12T19:13:14.518Z,39.80
2018-07-12T19:15:43.143Z,39.38
2018-07-12T19:18:11.837Z,39.66
2018-07-12T19:20:40.654Z,39.81
2018-07-12T19:23:09.297Z,39.84
2018-07-12T19:25:37.974Z,40.12
2018-07-12T19:28:06.631Z,39.76
2018-07-12T19:30:35.266Z,39.85
2018-07-12T19:33:03.911Z,40.48
2018-07-12T19:35:32.658Z,40.27
2018-07-12T19:38:01.562Z,40.59
2018-07-12T19:40:30.311Z,40.70
2018-07-12T19:42:59.981Z,41.01
2018-07-12T19:45:28.648Z,40.39
2018-07-12T19:47:57.336Z,41.16
2018-07-12T19:50:25.949Z,42.31
2018-07-12T19:52:55.061Z,42.46
2018-07-12T19:55:23.807Z,43.33
2018-07-12T19:57:52.845Z,43.46
2018-07-12T20:00:21.490Z,43.38
2018-07-12T20:02:50.298Z,43.72
2018-07-12T20:05:19.349Z,43.60
2018-07-12T20:07:48.017Z,43.72
2018-07-12T20:10:16.701Z,44.02
2018-07-12T20:12:45.601Z,45.31
2018-07-12T20:15:14.306Z,45.71
2018-07-12T20:17:43.343Z,45.46
2018-07-12T20:20:11.996Z,45.59
2018-07-12T20:22:40.770Z,45.35
2018-07-12T20:25:09.567Z,45.94
2018-07-12T20:27:38.255Z,45.93
2018-07-12T20:30:07.052Z,46.15
2018-07-12T20:32:35.698Z,46.27
2018-07-12T20:35:04.324Z,46.09
2018-07-12T20:37:33.058Z,47.08
2018-07-12T20:40:01.900Z,46.98
2018-07-12T20:42:30.600Z,46.97
2018-07-12T20:44:59.282Z,48.07
2018-07-12T20:47:27.913Z,47.89
2018-07-12T20:49:56.621Z,47.80
2018-07-12T20:52:25.258Z,47.73
2018-07-12T20:54:54.100Z,48.33
2018-07-12T20:57:22.892Z,48.93
2018-07-12T20:59:51.521Z,48.99
2018-07-12T21:02:21.031Z,48.91
2018-07-12T21:04:49.741Z,49.02
2018-07-12T21:07:19.364Z,49.05
2018-07-12T21:09:47.961Z,49.28
2018-07-12T21:12:16.609Z,50.38
2018-07-12T21:14:45.197Z,49.78
2018-07-12T21:17:14.099Z,50.07
2018-07-12T21:19:43.099Z,49.92
2018-07-12T21:22:11.750Z,50.05
2018-07-12T21:24:40.423Z,50.42
2018-07-12T21:27:09.076Z,50.04
2018-07-12T21:29:37.728Z,50.12
2018-07-12T21:32:06.451Z,50.97
2018-07-12T21:34:35.089Z,51.26
2018-07-12T21:37:03.896Z,52.08
2018-07-12T21:39:32.934Z,51.86
2018-07-12T21:42:01.538Z,51.97
2018-07-12T21:44:30.326Z,52.24
2018-07-12T21:46:58.880Z,52.86
2018-07-12T21:49:27.976Z,52.78
2018-07-12T21:51:56.618Z,53.27
2018-07-12T21:54:25.206Z,53.51
2018-07-12T21:56:53.925Z,53.03
2018-07-12T21:59:22.557Z,53.56
2018-07-12T22:01:51.315Z,54.32
2018-07-12T22:04:19.958Z,53.67
2018-07-12T22:07:01.677Z,54.04
2018-07-12T22:09:30.430Z,53.94
2018-07-12T22:11:59.123Z,54.13
2018-07-12T22:14:27.717Z,54.28
2018-07-12T22:16:56.339Z,53.97
2018-07-12T22:19:24.961Z,54.10
2018-07-12T22:21:53.697Z,53.67
2018-07-12T22:24:22.602Z,54.03
2018-07-12T22:26:51.253Z,53.80
2018-07-12T22:29:19.958Z,53.59
2018-07-12T22:31:48.546Z,53.04
2018-07-12T22:34:17.207Z,53.44
2018-07-12T22:36:45.853Z,53.21
2018-07-12T22:39:14.933Z,53.68
2018-07-12T22:41:43.637Z,54.02
2018-07-12T22:44:12.281Z,53.75
2018-07-12T22:46:40.885Z,53.87
2018-07-12T22:49:09.602Z,53.92
2018-07-12T22:51:38.139Z,54.12
2018-07-12T22:54:07.098Z,54.46
2018-07-12T22:56:35.687Z,54.65
2018-07-12T22:59:04.372Z,54.53
2018-07-12T23:01:32.973Z,54.82
2018-07-12T23:04:01.554Z,55.11
2018-07-12T23:06:31.006Z,55.22
2018-07-12T23:08:59.610Z,55.28
2018-07-12T23:11:28.194Z,55.23
2018-07-12T23:13:56.796Z,54.88
2018-07-12T23:16:25.352Z,55.48
2018-07-12T23:18:53.936Z,55.93
2018-07-12T23:21:23.418Z,56.10
2018-07-12T23:23:52.270Z,55.92
2018-07-12T23:26:21.015Z,55.56
2018-07-12T23:28:49.595Z,55.74
2018-07-12T23:31:18.357Z,55.81
2018-07-12T23:33:47.006Z,56.28
2018-07-12T23:36:15.692Z,55.99
2018-07-12T23:38:44.318Z,56.05
2018-07-12T23:41:12.961Z,56.45
2018-07-12T23:43:41.610Z,56.75
2018-07-12T23:46:10.213Z,56.39
2018-07-12T23:48:38.824Z,56.97
2018-07-12T23:51:07.665Z,56.94
2018-07-12T23:53:36.697Z,57.10
2018-07-12T23:56:06.235Z,57.48
2018-07-12T23:58:34.888Z,57.00
